Terminal Aerodrome Forecast
Issued by NWS Grand Junction, CO

Home | Current Version | Previous Version | Text Only | Print | Product List | Glossary On
Versions: 1 2 3 4 5 6 7 8 9 10 11 12 13 14 15 16 17 18 19 20 21 22 23 24 25 26 27 28 29 30 31 32
000
FTUS45 KGJT 251739
TAFGJT
TAF
KGJT 251739Z 2518/2618 29004KT P6SM VCSH SCT025 OVC060
      TEMPO 2518/2521 3SM -SHSN BR OVC015
     FM252100 32006KT 3SM -SN BR OVC015
      TEMPO 2521/2601 1 1/2SM -SN BR OVC007
     FM260300 04005KT P6SM SCT020 OVC040
     FM261000 VRB03KT P6SM VCSH BKN015=

USA.gov is the U.S. government's official web portal to all federal, state and local government web resources and services.